Flight Track Log - Related Links

Times and Time Zones

All times are in EDT time to prevent confusion due to time zone crossing. See the USC311 flight status page for this flight to view local times or setup timezone preferences in your user account.

Time Position Orientation Groundspeed Altitude Reporting Facility
EDT Latitude Longitude Course Direction KTS MPH feet Rate Location/Type
Wed 01:33:01 PM 43.1667 -79.9000 36° Northeast 60 69 700  Level Toronto Center
Wed 01:34:01 PM 43.1833 -79.8833 75° East 90 104 2,400 1,350 Climbing Toronto Center
Wed 01:35:01 PM 43.2000 -79.8667 36° Northeast 110 127 3,400 1,350 Climbing Toronto Center
Wed 01:36:01 PM 43.1833 -79.9333 251° West 120 138 5,100 1,450 Climbing Toronto Center
Wed 01:37:01 PM 43.1667 -79.9500 216° Southwest 120 138 6,300 1,200 Climbing Toronto Center
Wed 01:38:01 PM 43.1500 -80.0000 245° Southwest 110 127 7,500 850 Climbing Toronto Center
Wed 01:39:01 PM 43.1333 -80.0167 216° Southwest 120 138 8,000 250 Climbing Toronto Center
Wed 01:40:01 PM 43.1000 -80.0833 236° Southwest 160 184 8,000  Level Toronto Center
Wed 01:41:01 PM 43.0667 -80.1333 228° Southwest 170 196 8,000  Level Toronto Center
Wed 01:42:01 PM 43.0333 -80.1833 228° Southwest 180 207 8,000  Level Toronto Center
Wed 01:43:01 PM 43.0000 -80.2333 228° Southwest 180 207 8,000  Level Toronto Center
Wed 01:44:01 PM 42.9833 -80.3000 251° West 180 207 8,000  Level Toronto Center
Wed 01:45:01 PM 42.9500 -80.3667 236° Southwest 180 207 8,000  Level Toronto Center
Wed 01:46:01 PM 42.9333 -80.4000 236° Southwest 180 207 8,000  Level Toronto Center
Wed 01:47:01 PM 42.9000 -80.4500 228° Southwest 180 207 8,000 -50 Level Toronto Center
Wed 01:48:01 PM 42.8667 -80.5167 236° Southwest 180 207 7,900  Descending Toronto Center
Wed 01:48:34 PM 42.8650 -80.5644 267° West 180 207 8,000 63 Climbing Cleveland Center
Wed 01:49:36 PM 42.8375 -80.6222 237° Southwest 177 204 8,000  Level Cleveland Center
Wed 01:50:38 PM 42.8086 -80.6786 235° Southwest 176 203 8,000  Level Cleveland Center
Wed 01:51:41 PM 42.7803 -80.7350 236° Southwest 175 201 8,000  Level Cleveland Center
Wed 01:52:43 PM 42.7522 -80.7914 236° Southwest 174 200 8,000  Level Cleveland Center
Wed 01:53:45 PM 42.7244 -80.8481 236° Southwest 174 200 8,000  Level Cleveland Center
Wed 01:54:47 PM 42.7025 -80.8931 236° Southwest 173 199 8,000  Level Cleveland Center
Wed 01:55:49 PM 42.6633 -80.9458 225° Southwest 173 199 8,000  Level Cleveland Center
Wed 01:56:51 PM 42.6183 -80.9700 202° Southwest 171 197 8,000  Level Cleveland Center
Wed 01:57:53 PM 42.5747 -81.0047 210° Southwest 174 200 8,000  Level Cleveland Center
Wed 01:58:55 PM 42.5356 -81.0411 214° Southwest 174 200 8,000  Level Cleveland Center
Wed 01:59:57 PM 42.4992 -81.0839 221° Southwest 173 199 8,000  Level Cleveland Center
Wed 02:01:00 PM 42.4553 -81.1350 221° Southwest 173 199 8,000 -48 Level Cleveland Center
Wed 02:02:02 PM 42.4144 -81.1722 214° Southwest 173 199 7,900 -48 Descending Cleveland Center
Wed 02:03:04 PM 42.3728 -81.2081 212° Southwest 173 199 7,900  Level Cleveland Center
Wed 02:04:06 PM 42.3325 -81.2458 215° Southwest 174 200 7,900 97 Level Cleveland Center
Wed 02:05:08 PM 42.2933 -81.2833 215° Southwest 174 200 8,100 97 Climbing Cleveland Center
Wed 02:06:10 PM 42.2525 -81.3214 215° Southwest 174 200 8,100  Level Cleveland Center
Wed 02:07:12 PM 42.2058 -81.3664 216° Southwest 174 200 8,100  Level Cleveland Center
Wed 02:08:14 PM 42.1675 -81.4067 218° Southwest 174 200 8,100  Level Cleveland Center
Wed 02:09:16 PM 42.1275 -81.4433 214° Southwest 174 200 8,100  Level Cleveland Center
Wed 02:10:19 PM 42.0878 -81.4806 215° Southwest 173 199 8,100  Level Cleveland Center
Wed 02:11:21 PM 42.0483 -81.5167 214° Southwest 173 199 8,100  Level Cleveland Center
Wed 02:12:23 PM 42.0094 -81.5542 216° Southwest 173 199 8,100  Level Cleveland Center
Wed 02:13:25 PM 41.9706 -81.5892 214° Southwest 171 197 8,100  Level Cleveland Center
Wed 02:14:27 PM 41.9250 -81.6319 215° Southwest 171 197 8,100  Level Cleveland Center
Wed 02:15:29 PM 41.8869 -81.6664 214° Southwest 168 193 8,100  Level Cleveland Center
Wed 02:16:20 PM 41.8544 -81.6989 217° Southwest 167 192 8,100  Level Cleveland Center
Wed 02:16:31 PM 41.8483 -81.7031 207° Southwest 168 193 8,100  Level Cleveland Center
Wed 02:17:21 PM 41.8153 -81.7372 218° Southwest 165 190 8,100  Level Cleveland Center
Wed 02:17:33 PM 41.8119 -81.7408 219° Southwest 168 193 8,100  Level Cleveland Center
Wed 02:18:28 PM 41.7761 -81.7758 216° Southwest 162 186 8,100  Level Cleveland Center
Wed 02:19:38 PM 41.7467 -81.8217 229° Southwest 168 193 8,100  Level Cleveland Center
Wed 02:20:35 PM 41.7342 -81.8894 256° West 165 190 8,100  Level Cleveland Center
Wed 02:21:30 PM 41.7228 -81.9439 254° West 164 189 8,100  Level Cleveland Center
Wed 02:21:42 PM 41.7214 -81.9506 254° West 168 193 8,100  Level Cleveland Center
Wed 02:22:31 PM 41.7111 -82.0008 255° West 163 188 8,100 -97 Level Cleveland Center
Wed 02:22:44 PM 41.7092 -82.0094 253° West 168 193 8,000  Descending Cleveland Center
Wed 02:23:32 PM 41.6992 -82.0603 255° West 161 185 8,100 97 Climbing Cleveland Center
Wed 02:23:46 PM 41.6969 -82.0675 248° West 166 191 8,100  Level Cleveland Center
Wed 02:24:32 PM 41.6856 -82.1169 253° West 161 185 8,100  Level Cleveland Center
Wed 02:24:48 PM 41.6839 -82.1242 253° West 162 186 8,100  Level Cleveland Center
Wed 02:25:33 PM 41.6717 -82.1736 252° West 162 186 8,100  Level Cleveland Center
Wed 02:25:50 PM 41.6708 -82.1808 261° West 162 186 8,100  Level Cleveland Center
Wed 02:26:34 PM 41.6600 -82.2303 254° West 162 186 8,100  Level Cleveland Center
Wed 02:26:52 PM 41.6600 -82.2389 270° West 162 186 8,100  Level Cleveland Center
Wed 02:27:29 PM 41.6506 -82.2847 255° West 164 189 8,100  Level Cleveland Center
Wed 02:27:54 PM 41.6456 -82.3092 255° West 162 186 8,100  Level Cleveland Center
Wed 02:28:30 PM 41.6369 -82.3411 250° West 162 186 8,100  Level Cleveland Center
Wed 02:28:56 PM 41.6325 -82.3672 257° West 162 186 8,100  Level Cleveland Center
Wed 02:29:30 PM 41.6244 -82.4036 254° West 160 184 8,100  Level Cleveland Center
Wed 02:29:59 PM 41.6197 -82.4250 254° West 162 186 8,100  Level Cleveland Center
Wed 02:30:25 PM 41.6136 -82.4519 253° West 159 183 8,100  Level Cleveland Center
Wed 02:31:01 PM 41.6069 -82.4819 253° West 162 186 8,100  Level Cleveland Center
Wed 02:31:38 PM 41.5983 -82.5222 254° West 160 184 8,100  Level Cleveland Center
Wed 02:32:03 PM 41.5944 -82.5389 253° West 162 186 8,100 -111 Level Cleveland Center
Wed 02:32:32 PM 41.5844 -82.5758 250° West 161 185 8,000  Descending Cleveland Center
Wed 02:33:05 PM 41.5814 -82.5969 259° West 161 185 8,100  Climbing Cleveland Center
Wed 02:33:39 PM 41.5722 -82.6381 253° West 162 186 8,000  Descending Cleveland Center
Wed 02:34:07 PM 41.5678 -82.6667 258° West 162 186 8,100 109 Climbing Cleveland Center
Wed 02:34:34 PM 41.5625 -82.6922 255° West 162 186 8,100 -97 Level Cleveland Center
Wed 02:35:09 PM 41.5542 -82.7253 251° West 162 186 8,000  Descending Cleveland Center
Wed 02:36:11 PM 41.5408 -82.7828 253° West 162 186 8,100  Climbing Cleveland Center
Wed 02:37:13 PM 41.5272 -82.8392 252° West 162 186 8,000 -48 Descending Cleveland Center
Wed 02:38:16 PM 41.5142 -82.8986 254° West 163 188 8,000  Level Cleveland Center
Wed 02:39:18 PM 41.5011 -82.9581 254° West 164 189 8,000  Level Cleveland Center
Wed 02:40:20 PM 41.4886 -83.0181 254° West 165 190 8,000  Level Cleveland Center
Wed 02:41:22 PM 41.4703 -83.0892 251° West 169 194 8,000  Level Cleveland Center
Wed 02:42:24 PM 41.4575 -83.1500 254° West 170 196 8,000 -48 Level Cleveland Center
Wed 02:43:26 PM 41.4486 -83.2039 258° West 166 191 7,900  Descending Cleveland Center
Wed 02:44:28 PM 41.4347 -83.2608 252° West 164 189 8,000 48 Climbing Cleveland Center
Wed 02:45:30 PM 41.4197 -83.3178 251° West 164 189 8,000  Level Cleveland Center
Wed 02:46:33 PM 41.4036 -83.3908 254° West 167 192 8,000  Level Cleveland Center
Wed 02:47:35 PM 41.3919 -83.4494 255° West 166 191 8,000  Level Cleveland Center
Wed 02:48:37 PM 41.3789 -83.5050 253° West 161 185 8,000  Level Cleveland Center
Wed 02:49:39 PM 41.3658 -83.5611 253° West 161 185 8,000 -48 Level Cleveland Center
Wed 02:50:41 PM 41.3533 -83.6172 253° West 161 185 7,900  Descending Cleveland Center
Wed 02:51:43 PM 41.3406 -83.6722 253° West 158 182 8,000 48 Climbing Cleveland Center
Wed 02:52:45 PM 41.3253 -83.7364 252° West 156 180 8,000  Level Cleveland Center
Wed 02:53:47 PM 41.3128 -83.7906 253° West 154 177 8,000  Level Cleveland Center
Wed 02:54:49 PM 41.2994 -83.8439 252° West 153 176 8,000  Level Cleveland Center
Wed 02:55:51 PM 41.2872 -83.9003 254° West 153 176 8,000  Level Cleveland Center
Wed 02:56:54 PM 41.2753 -83.9531 253° West 153 176 8,000  Level Cleveland Center
Wed 02:57:56 PM 41.2633 -84.0056 253° West 150 173 8,000  Level Cleveland Center
Wed 02:58:58 PM 41.2494 -84.0564 250° West 150 173 8,000 48 Level Cleveland Center
Wed 03:00:00 PM 41.2339 -84.1208 252° West 151 174 8,100 48 Climbing Cleveland Center
Wed 03:01:02 PM 41.2222 -84.1761 254° West 152 175 8,100 -48 Level Cleveland Center
Wed 03:02:04 PM 41.2103 -84.2317 254° West 153 176 8,000 -48 Descending Cleveland Center
Wed 03:03:06 PM 41.1964 -84.2853 251° West 153 176 8,000 48 Level Cleveland Center
Wed 03:04:08 PM 41.1831 -84.3381 251° West 153 176 8,100  Climbing Cleveland Center
Wed 03:05:11 PM 41.1681 -84.4064 254° West 159 183 8,000  Descending Cleveland Center
Wed 03:06:13 PM 41.1561 -84.4597 253° West 158 182 8,100 48 Climbing Cleveland Center
Wed 03:07:15 PM 41.1433 -84.5147 253° West 155 178 8,100  Level Cleveland Center
Wed 03:08:17 PM 41.1308 -84.5703 253° West 155 178 8,100  Level Cleveland Center
Wed 03:09:19 PM 41.1175 -84.6239 252° West 155 178 8,100 -242 Level Cleveland Center
Wed 03:10:21 PM 41.1036 -84.6769 251° West 154 177 7,600 -1,161 Descending Cleveland Center
Wed 03:11:23 PM 41.0850 -84.7561 253° West 178 205 5,700 -1,452 Descending Cleveland Center
Wed 03:12:25 PM 41.0736 -84.8278 258° West 190 219 4,600 -816 Descending Cleveland Center
Wed 03:13:28 PM 41.0719 -84.9006 268° West 196 226 4,000 -288 Descending Cleveland Center
Wed 03:14:30 PM 41.0717 -84.9617 270° West 186 214 4,000 -48 Level Cleveland Center
Wed 03:15:32 PM 41.0675 -85.0156 264° West 165 190 3,900  Descending Cleveland Center
Wed 03:16:34 PM 41.0675 -85.0708 270° West 156 180 4,000 48 Climbing Cleveland Center
Wed 03:17:36 PM 41.0653 -85.1367 267° West 153 176 4,000 -242 Level Cleveland Center
Wed 03:18:38 PM 41.0478 -85.1783 241° Southwest 152 175 3,500 -774 Descending Cleveland Center
Wed 03:19:40 PM 41.0108 -85.1736 174° South 141 162 2,400 -677 Descending Cleveland Center
Wed 03:20:42 PM 40.9753 -85.1675 173° South 138 159 2,100 -290 Descending Cleveland Center

Login

Don't have an account? Register now (free) for customized features, flight alerts, and more!